Airfield :
LOGIN :

Register | Disclaimer

   EN    FR    IT 

 










Legend :    VFR   Marginal VFR   IFR   Intensive IFR   Very Intensive IFR
Visi :
Ceiling :
>= 8 km
>= 3000ft
5 to 8 km
1000 to 3000 ft
1500m to 5 km
500 to 1000 ft
800 to 1500m
200 to 500 ft
< 800m
< 200 ft
Symbols :   Thunderstorms  Fog  Heavy snow  Heavy precipitations  Wind > 20 kt
SIGMETs :     Misc.  Thunderstorms  Icing  Turbulence  Mountain Waves  Volcanic Ashes







- Airport Elevation : 277 ft
- IATA code : JER
- Download approach charts


EGJJ - Jersey

CURRENT METAR :
  • 230650Z 20013KT 9999 FEW006 SCT008 15/14 Q1012

EXPIRED METARs :
  • 230620Z 20012KT 9999 FEW006 15/14 Q1012
  • 230550Z 21012KT 9999 FEW006 15/14 Q1012
  • 230520Z 21012KT 9999 VCSH FEW009 SCT010 15/13 Q1012
  • 230450Z 21011KT 9999 VCSH SCT010 SCT038 15/14 Q1012
  • 230420Z AUTO 22009KT 9999 FEW012/// BKN039/// BKN044/// 15/13 Q1012 REDZ

TAF TAF EGJJ
Valid from the 23 at 06:00 until the 23 at 15:00 UTC


230459Z 2306/2315 20017KT 9999 FEW012 SCT017
TEMPO 2306/2312 BKN015
PROB30
TEMPO 2306/2310 8000 SHRA BKN010
BECMG 2312/2314 17022G32KT 7000 RA BKN014
TEMPO 2313/2315 3000 +RA BKN007
ATIS : +44 1534 498 073
No reported NOTAMs for that airfield.



MET'MAP, your aeronautical weather chart ! - Copyright ORBIFLY December 2007 - Disclaimer

ORBIFLY MET'MAP TEAM :

Programming & Development : Alexandra Zaïnal
Concept & Development : Baudouin d'Aumeries
Co-Development & Prog : Marc-Olivier Méhu
Technical & hardware support : Manuel Goepfert

Contact : metmap@orbifly.com




SOURCES & CREDITS :

   NOAA